sensor_id;sensor_type;location;lat;lon;timestamp;P1;durP1;ratioP1;P2;durP2;ratioP2
61911;SDS011;49973;52.084;5.412;2023-11-21T00:00:09;1.30;;;0.63;;
61911;SDS011;49973;52.084;5.412;2023-11-21T00:02:39;1.27;;;1.23;;
61911;SDS011;49973;52.084;5.412;2023-11-21T00:05:11;1.30;;;0.97;;
61911;SDS011;49973;52.084;5.412;2023-11-21T00:07:41;0.47;;;0.47;;
61911;SDS011;49973;52.084;5.412;2023-11-21T00:10:11;1.47;;;0.90;;
61911;SDS011;49973;52.084;5.412;2023-11-21T00:12:43;1.60;;;0.70;;
61911;SDS011;49973;52.084;5.412;2023-11-21T00:15:11;2.13;;;0.93;;
61911;SDS011;49973;52.084;5.412;2023-11-21T00:17:40;0.90;;;0.90;;
61911;SDS011;49973;52.084;5.412;2023-11-21T00:20:11;1.13;;;1.03;;
61911;SDS011;49973;52.084;5.412;2023-11-21T00:22:41;0.80;;;0.80;;
61911;SDS011;49973;52.084;5.412;2023-11-21T00:25:10;0.67;;;0.67;;
61911;SDS011;49973;52.084;5.412;2023-11-21T00:27:39;0.73;;;0.73;;
61911;SDS011;49973;52.084;5.412;2023-11-21T00:30:09;0.90;;;0.83;;
61911;SDS011;49973;52.084;5.412;2023-11-21T00:32:39;0.40;;;0.40;;
61911;SDS011;49973;52.084;5.412;2023-11-21T00:35:08;0.90;;;0.90;;
61911;SDS011;49973;52.084;5.412;2023-11-21T00:37:38;1.13;;;1.03;;
61911;SDS011;49973;52.084;5.412;2023-11-21T00:40:07;1.00;;;0.90;;
61911;SDS011;49973;52.084;5.412;2023-11-21T00:42:37;1.60;;;1.50;;
61911;SDS011;49973;52.084;5.412;2023-11-21T00:45:06;0.93;;;0.93;;
61911;SDS011;49973;52.084;5.412;2023-11-21T00:47:36;2.53;;;1.17;;
61911;SDS011;49973;52.084;5.412;2023-11-21T00:50:06;1.70;;;1.60;;
61911;SDS011;49973;52.084;5.412;2023-11-21T00:52:36;2.17;;;1.30;;
61911;SDS011;49973;52.084;5.412;2023-11-21T00:55:06;2.73;;;2.07;;
61911;SDS011;49973;52.084;5.412;2023-11-21T00:57:37;1.27;;;1.17;;
61911;SDS011;49973;52.084;5.412;2023-11-21T01:00:06;1.40;;;1.27;;
61911;SDS011;49973;52.084;5.412;2023-11-21T01:02:36;1.60;;;1.13;;
61911;SDS011;49973;52.084;5.412;2023-11-21T01:05:05;1.33;;;1.23;;
61911;SDS011;49973;52.084;5.412;2023-11-21T01:07:35;1.37;;;1.27;;
61911;SDS011;49973;52.084;5.412;2023-11-21T01:10:06;0.93;;;0.90;;
61911;SDS011;49973;52.084;5.412;2023-11-21T01:12:36;0.67;;;0.67;;
61911;SDS011;49973;52.084;5.412;2023-11-21T01:15:05;2.07;;;1.43;;
61911;SDS011;49973;52.084;5.412;2023-11-21T01:17:35;1.13;;;1.10;;
61911;SDS011;49973;52.084;5.412;2023-11-21T01:20:05;1.30;;;1.13;;
61911;SDS011;49973;52.084;5.412;2023-11-21T01:22:40;0.43;;;0.43;;
61911;SDS011;49973;52.084;5.412;2023-11-21T01:25:11;0.93;;;0.93;;
61911;SDS011;49973;52.084;5.412;2023-11-21T01:27:42;0.63;;;0.63;;
61911;SDS011;49973;52.084;5.412;2023-11-21T01:30:11;2.23;;;1.20;;
61911;SDS011;49973;52.084;5.412;2023-11-21T01:32:40;0.70;;;0.70;;
61911;SDS011;49973;52.084;5.412;2023-11-21T01:35:08;0.63;;;0.63;;
61911;SDS011;49973;52.084;5.412;2023-11-21T01:37:38;0.40;;;0.40;;
61911;SDS011;49973;52.084;5.412;2023-11-21T01:40:07;0.80;;;0.80;;
61911;SDS011;49973;52.084;5.412;2023-11-21T01:42:42;0.50;;;0.50;;
61911;SDS011;49973;52.084;5.412;2023-11-21T01:45:13;0.37;;;0.37;;
61911;SDS011;49973;52.084;5.412;2023-11-21T01:47:42;0.70;;;0.70;;
61911;SDS011;49973;52.084;5.412;2023-11-21T01:50:13;1.57;;;1.20;;
61911;SDS011;49973;52.084;5.412;2023-11-21T01:52:44;1.27;;;1.17;;
61911;SDS011;49973;52.084;5.412;2023-11-21T01:55:14;1.13;;;1.03;;
61911;SDS011;49973;52.084;5.412;2023-11-21T01:57:56;2.70;;;1.37;;
61911;SDS011;49973;52.084;5.412;2023-11-21T02:00:25;0.80;;;0.80;;
61911;SDS011;49973;52.084;5.412;2023-11-21T02:02:56;0.90;;;0.60;;
61911;SDS011;49973;52.084;5.412;2023-11-21T02:05:26;0.70;;;0.70;;
61911;SDS011;49973;52.084;5.412;2023-11-21T02:07:58;1.07;;;1.07;;
61911;SDS011;49973;52.084;5.412;2023-11-21T02:10:27;0.70;;;0.70;;
61911;SDS011;49973;52.084;5.412;2023-11-21T02:12:59;0.80;;;0.80;;
61911;SDS011;49973;52.084;5.412;2023-11-21T02:15:30;0.87;;;0.63;;
61911;SDS011;49973;52.084;5.412;2023-11-21T02:17:58;1.17;;;1.00;;
61911;SDS011;49973;52.084;5.412;2023-11-21T02:20:30;1.00;;;1.00;;
61911;SDS011;49973;52.084;5.412;2023-11-21T02:23:04;1.63;;;1.33;;
61911;SDS011;49973;52.084;5.412;2023-11-21T02:25:33;1.73;;;1.33;;
61911;SDS011;49973;52.084;5.412;2023-11-21T02:28:04;1.13;;;1.03;;
61911;SDS011;49973;52.084;5.412;2023-11-21T02:30:33;0.67;;;0.67;;
61911;SDS011;49973;52.084;5.412;2023-11-21T02:33:03;1.00;;;1.00;;
61911;SDS011;49973;52.084;5.412;2023-11-21T02:35:33;0.90;;;0.90;;
61911;SDS011;49973;52.084;5.412;2023-11-21T02:38:02;0.40;;;0.40;;
61911;SDS011;49973;52.084;5.412;2023-11-21T02:40:32;0.50;;;0.50;;
61911;SDS011;49973;52.084;5.412;2023-11-21T02:43:00;0.50;;;0.50;;
61911;SDS011;49973;52.084;5.412;2023-11-21T02:45:29;0.27;;;0.27;;
61911;SDS011;49973;52.084;5.412;2023-11-21T02:47:58;1.17;;;1.07;;
61911;SDS011;49973;52.084;5.412;2023-11-21T02:50:27;1.07;;;0.60;;
61911;SDS011;49973;52.084;5.412;2023-11-21T02:52:56;1.00;;;0.93;;
61911;SDS011;49973;52.084;5.412;2023-11-21T02:55:27;0.73;;;0.47;;
61911;SDS011;49973;52.084;5.412;2023-11-21T02:57:57;0.90;;;0.90;;
61911;SDS011;49973;52.084;5.412;2023-11-21T03:00:27;0.50;;;0.50;;
61911;SDS011;49973;52.084;5.412;2023-11-21T03:02:55;0.37;;;0.37;;
61911;SDS011;49973;52.084;5.412;2023-11-21T03:05:25;0.50;;;0.50;;
61911;SDS011;49973;52.084;5.412;2023-11-21T03:07:56;1.03;;;1.03;;
61911;SDS011;49973;52.084;5.412;2023-11-21T03:10:25;1.00;;;0.90;;
61911;SDS011;49973;52.084;5.412;2023-11-21T03:12:55;0.60;;;0.60;;
61911;SDS011;49973;52.084;5.412;2023-11-21T03:15:25;1.10;;;1.10;;
61911;SDS011;49973;52.084;5.412;2023-11-21T03:17:54;0.70;;;0.67;;
61911;SDS011;49973;52.084;5.412;2023-11-21T03:20:24;0.43;;;0.43;;
61911;SDS011;49973;52.084;5.412;2023-11-21T03:22:53;0.50;;;0.50;;
61911;SDS011;49973;52.084;5.412;2023-11-21T03:25:21;0.73;;;0.73;;
61911;SDS011;49973;52.084;5.412;2023-11-21T03:27:51;1.60;;;1.50;;
61911;SDS011;49973;52.084;5.412;2023-11-21T03:30:20;0.80;;;0.77;;
61911;SDS011;49973;52.084;5.412;2023-11-21T03:32:50;0.80;;;0.80;;
61911;SDS011;49973;52.084;5.412;2023-11-21T03:35:19;0.77;;;0.70;;
61911;SDS011;49973;52.084;5.412;2023-11-21T03:37:48;1.80;;;1.70;;
61911;SDS011;49973;52.084;5.412;2023-11-21T03:40:17;0.70;;;0.70;;
61911;SDS011;49973;52.084;5.412;2023-11-21T03:42:47;0.73;;;0.73;;
61911;SDS011;49973;52.084;5.412;2023-11-21T03:45:16;1.10;;;1.10;;
61911;SDS011;49973;52.084;5.412;2023-11-21T03:47:45;1.53;;;1.43;;
61911;SDS011;49973;52.084;5.412;2023-11-21T03:50:16;1.47;;;1.37;;
61911;SDS011;49973;52.084;5.412;2023-11-21T03:52:44;1.83;;;1.73;;
61911;SDS011;49973;52.084;5.412;2023-11-21T03:55:13;1.23;;;1.13;;
61911;SDS011;49973;52.084;5.412;2023-11-21T03:57:42;1.10;;;1.07;;
61911;SDS011;49973;52.084;5.412;2023-11-21T04:00:11;0.80;;;0.80;;
61911;SDS011;49973;52.084;5.412;2023-11-21T04:02:40;1.80;;;1.03;;
61911;SDS011;49973;52.084;5.412;2023-11-21T04:05:09;0.93;;;0.90;;
61911;SDS011;49973;52.084;5.412;2023-11-21T04:07:39;1.63;;;1.53;;
61911;SDS011;49973;52.084;5.412;2023-11-21T04:10:08;0.90;;;0.77;;
61911;SDS011;49973;52.084;5.412;2023-11-21T04:12:39;0.87;;;0.87;;
61911;SDS011;49973;52.084;5.412;2023-11-21T04:15:08;1.03;;;1.03;;
61911;SDS011;49973;52.084;5.412;2023-11-21T04:17:37;1.70;;;1.40;;
61911;SDS011;49973;52.084;5.412;2023-11-21T04:20:07;0.80;;;0.80;;
61911;SDS011;49973;52.084;5.412;2023-11-21T04:22:39;1.17;;;1.07;;
61911;SDS011;49973;52.084;5.412;2023-11-21T04:25:11;0.70;;;0.70;;
61911;SDS011;49973;52.084;5.412;2023-11-21T04:27:41;0.90;;;0.90;;
61911;SDS011;49973;52.084;5.412;2023-11-21T04:30:11;2.60;;;2.43;;
61911;SDS011;49973;52.084;5.412;2023-11-21T04:32:40;0.77;;;0.77;;
61911;SDS011;49973;52.084;5.412;2023-11-21T04:35:09;1.73;;;1.00;;
61911;SDS011;49973;52.084;5.412;2023-11-21T04:37:39;2.40;;;2.20;;
61911;SDS011;49973;52.084;5.412;2023-11-21T04:40:08;2.13;;;1.70;;
61911;SDS011;49973;52.084;5.412;2023-11-21T04:42:38;0.97;;;0.97;;
61911;SDS011;49973;52.084;5.412;2023-11-21T04:45:07;1.07;;;0.83;;
61911;SDS011;49973;52.084;5.412;2023-11-21T04:47:38;1.00;;;1.00;;
61911;SDS011;49973;52.084;5.412;2023-11-21T04:50:07;1.43;;;1.33;;
61911;SDS011;49973;52.084;5.412;2023-11-21T04:52:36;0.63;;;0.63;;
61911;SDS011;49973;52.084;5.412;2023-11-21T04:55:07;0.83;;;0.83;;
61911;SDS011;49973;52.084;5.412;2023-11-21T04:57:37;0.73;;;0.73;;
61911;SDS011;49973;52.084;5.412;2023-11-21T05:00:09;1.27;;;1.17;;
61911;SDS011;49973;52.084;5.412;2023-11-21T05:02:40;1.30;;;1.20;;
61911;SDS011;49973;52.084;5.412;2023-11-21T05:05:11;2.67;;;1.53;;
61911;SDS011;49973;52.084;5.412;2023-11-21T05:07:41;1.57;;;1.47;;
61911;SDS011;49973;52.084;5.412;2023-11-21T05:10:11;1.10;;;1.00;;
61911;SDS011;49973;52.084;5.412;2023-11-21T05:12:42;0.73;;;0.73;;
61911;SDS011;49973;52.084;5.412;2023-11-21T05:15:14;0.63;;;0.63;;
61911;SDS011;49973;52.084;5.412;2023-11-21T05:17:44;0.47;;;0.47;;
61911;SDS011;49973;52.084;5.412;2023-11-21T05:20:14;0.73;;;0.73;;
61911;SDS011;49973;52.084;5.412;2023-11-21T05:22:45;0.80;;;0.80;;
61911;SDS011;49973;52.084;5.412;2023-11-21T05:25:16;1.13;;;1.03;;
61911;SDS011;49973;52.084;5.412;2023-11-21T05:27:46;0.93;;;0.90;;
61911;SDS011;49973;52.084;5.412;2023-11-21T05:30:14;1.37;;;1.13;;
61911;SDS011;49973;52.084;5.412;2023-11-21T05:32:43;0.80;;;0.80;;
61911;SDS011;49973;52.084;5.412;2023-11-21T05:35:13;1.67;;;1.50;;
61911;SDS011;49973;52.084;5.412;2023-11-21T05:37:44;0.67;;;0.67;;
61911;SDS011;49973;52.084;5.412;2023-11-21T05:40:14;1.77;;;0.90;;
61911;SDS011;49973;52.084;5.412;2023-11-21T05:42:44;1.50;;;1.43;;
61911;SDS011;49973;52.084;5.412;2023-11-21T05:45:13;0.53;;;0.53;;
61911;SDS011;49973;52.084;5.412;2023-11-21T05:47:42;1.17;;;1.10;;
61911;SDS011;49973;52.084;5.412;2023-11-21T05:50:14;0.60;;;0.60;;
61911;SDS011;49973;52.084;5.412;2023-11-21T05:52:44;1.70;;;0.80;;
61911;SDS011;49973;52.084;5.412;2023-11-21T05:55:14;0.50;;;0.50;;
61911;SDS011;49973;52.084;5.412;2023-11-21T05:57:44;0.83;;;0.83;;
61911;SDS011;49973;52.084;5.412;2023-11-21T06:00:14;0.87;;;0.87;;
61911;SDS011;49973;52.084;5.412;2023-11-21T06:02:48;0.57;;;0.57;;
61911;SDS011;49973;52.084;5.412;2023-11-21T06:05:19;0.80;;;0.80;;
61911;SDS011;49973;52.084;5.412;2023-11-21T06:07:51;1.07;;;1.07;;
61911;SDS011;49973;52.084;5.412;2023-11-21T06:10:22;0.93;;;0.50;;
61911;SDS011;49973;52.084;5.412;2023-11-21T06:12:53;1.37;;;0.83;;
61911;SDS011;49973;52.084;5.412;2023-11-21T06:15:22;1.60;;;1.40;;
61911;SDS011;49973;52.084;5.412;2023-11-21T06:17:51;1.57;;;1.47;;
61911;SDS011;49973;52.084;5.412;2023-11-21T06:20:21;1.00;;;1.00;;
61911;SDS011;49973;52.084;5.412;2023-11-21T06:22:50;1.67;;;1.57;;
61911;SDS011;49973;52.084;5.412;2023-11-21T06:25:19;1.27;;;1.17;;
61911;SDS011;49973;52.084;5.412;2023-11-21T06:27:49;2.23;;;1.37;;
61911;SDS011;49973;52.084;5.412;2023-11-21T06:30:21;1.13;;;1.03;;
61911;SDS011;49973;52.084;5.412;2023-11-21T06:32:50;0.77;;;0.77;;
61911;SDS011;49973;52.084;5.412;2023-11-21T06:35:20;1.57;;;1.47;;
61911;SDS011;49973;52.084;5.412;2023-11-21T06:37:49;1.30;;;1.20;;
61911;SDS011;49973;52.084;5.412;2023-11-21T06:40:19;0.97;;;0.97;;
61911;SDS011;49973;52.084;5.412;2023-11-21T06:42:48;1.17;;;1.10;;
61911;SDS011;49973;52.084;5.412;2023-11-21T06:45:17;1.23;;;1.20;;
61911;SDS011;49973;52.084;5.412;2023-11-21T06:47:48;1.17;;;1.17;;
61911;SDS011;49973;52.084;5.412;2023-11-21T06:50:17;0.90;;;0.90;;
61911;SDS011;49973;52.084;5.412;2023-11-21T06:52:47;0.73;;;0.73;;
61911;SDS011;49973;52.084;5.412;2023-11-21T06:55:16;0.80;;;0.80;;
61911;SDS011;49973;52.084;5.412;2023-11-21T06:57:44;1.67;;;1.57;;
61911;SDS011;49973;52.084;5.412;2023-11-21T07:00:15;0.90;;;0.90;;
61911;SDS011;49973;52.084;5.412;2023-11-21T07:02:45;0.80;;;0.80;;
61911;SDS011;49973;52.084;5.412;2023-11-21T07:05:15;0.60;;;0.60;;
61911;SDS011;49973;52.084;5.412;2023-11-21T07:07:48;1.20;;;1.20;;
61911;SDS011;49973;52.084;5.412;2023-11-21T07:10:18;1.40;;;1.30;;
61911;SDS011;49973;52.084;5.412;2023-11-21T07:12:46;0.77;;;0.77;;
61911;SDS011;49973;52.084;5.412;2023-11-21T07:15:15;1.87;;;1.77;;
61911;SDS011;49973;52.084;5.412;2023-11-21T07:17:43;1.40;;;1.23;;
61911;SDS011;49973;52.084;5.412;2023-11-21T07:20:13;0.90;;;0.90;;
61911;SDS011;49973;52.084;5.412;2023-11-21T07:22:44;1.10;;;1.00;;
61911;SDS011;49973;52.084;5.412;2023-11-21T07:25:13;0.67;;;0.67;;
61911;SDS011;49973;52.084;5.412;2023-11-21T07:27:41;1.07;;;1.07;;
61911;SDS011;49973;52.084;5.412;2023-11-21T07:30:11;1.53;;;1.07;;
61911;SDS011;49973;52.084;5.412;2023-11-21T07:32:40;1.13;;;0.90;;
61911;SDS011;49973;52.084;5.412;2023-11-21T07:35:09;0.83;;;0.83;;
61911;SDS011;49973;52.084;5.412;2023-11-21T07:37:39;1.23;;;1.13;;
61911;SDS011;49973;52.084;5.412;2023-11-21T07:40:08;1.63;;;1.43;;
61911;SDS011;49973;52.084;5.412;2023-11-21T07:42:38;0.30;;;0.30;;
61911;SDS011;49973;52.084;5.412;2023-11-21T07:45:10;0.60;;;0.60;;
61911;SDS011;49973;52.084;5.412;2023-11-21T07:47:39;0.93;;;0.90;;
61911;SDS011;49973;52.084;5.412;2023-11-21T07:50:08;1.23;;;1.13;;
61911;SDS011;49973;52.084;5.412;2023-11-21T07:52:37;1.07;;;1.07;;
61911;SDS011;49973;52.084;5.412;2023-11-21T07:55:07;0.70;;;0.70;;
61911;SDS011;49973;52.084;5.412;2023-11-21T07:57:36;0.90;;;0.90;;
61911;SDS011;49973;52.084;5.412;2023-11-21T08:00:06;0.50;;;0.50;;
61911;SDS011;49973;52.084;5.412;2023-11-21T08:02:39;0.57;;;0.57;;
61911;SDS011;49973;52.084;5.412;2023-11-21T08:05:10;0.70;;;0.70;;
61911;SDS011;49973;52.084;5.412;2023-11-21T08:07:52;0.93;;;0.90;;
61911;SDS011;49973;52.084;5.412;2023-11-21T08:10:20;0.70;;;0.70;;
61911;SDS011;49973;52.084;5.412;2023-11-21T08:12:49;1.33;;;1.27;;
61911;SDS011;49973;52.084;5.412;2023-11-21T08:15:18;1.10;;;1.00;;
61911;SDS011;49973;52.084;5.412;2023-11-21T08:17:47;2.57;;;1.57;;
61911;SDS011;49973;52.084;5.412;2023-11-21T08:20:16;1.57;;;1.03;;
61911;SDS011;49973;52.084;5.412;2023-11-21T08:22:45;0.63;;;0.63;;
61911;SDS011;49973;52.084;5.412;2023-11-21T08:25:17;1.03;;;0.97;;
61911;SDS011;49973;52.084;5.412;2023-11-21T08:27:47;1.23;;;1.23;;
61911;SDS011;49973;52.084;5.412;2023-11-21T08:30:16;1.10;;;0.77;;
61911;SDS011;49973;52.084;5.412;2023-11-21T08:32:46;0.40;;;0.40;;
61911;SDS011;49973;52.084;5.412;2023-11-21T08:35:15;0.80;;;0.80;;
61911;SDS011;49973;52.084;5.412;2023-11-21T08:37:44;0.77;;;0.77;;
61911;SDS011;49973;52.084;5.412;2023-11-21T08:40:13;0.37;;;0.37;;
61911;SDS011;49973;52.084;5.412;2023-11-21T08:42:45;0.90;;;0.90;;
61911;SDS011;49973;52.084;5.412;2023-11-21T08:45:15;0.80;;;0.80;;
61911;SDS011;49973;52.084;5.412;2023-11-21T08:47:44;0.50;;;0.50;;
61911;SDS011;49973;52.084;5.412;2023-11-21T08:50:13;0.90;;;0.90;;
61911;SDS011;49973;52.084;5.412;2023-11-21T08:52:43;0.87;;;0.67;;
61911;SDS011;49973;52.084;5.412;2023-11-21T08:55:13;1.27;;;0.77;;
61911;SDS011;49973;52.084;5.412;2023-11-21T08:57:43;1.23;;;1.13;;
61911;SDS011;49973;52.084;5.412;2023-11-21T09:00:15;0.60;;;0.60;;
61911;SDS011;49973;52.084;5.412;2023-11-21T09:02:44;1.37;;;1.27;;
61911;SDS011;49973;52.084;5.412;2023-11-21T09:05:14;0.87;;;0.87;;
61911;SDS011;49973;52.084;5.412;2023-11-21T09:07:43;1.20;;;1.07;;
61911;SDS011;49973;52.084;5.412;2023-11-21T09:10:13;0.97;;;0.73;;
61911;SDS011;49973;52.084;5.412;2023-11-21T09:12:42;0.70;;;0.70;;
61911;SDS011;49973;52.084;5.412;2023-11-21T09:15:11;1.03;;;0.63;;
61911;SDS011;49973;52.084;5.412;2023-11-21T09:17:41;0.90;;;0.77;;
61911;SDS011;49973;52.084;5.412;2023-11-21T09:20:12;0.80;;;0.80;;
61911;SDS011;49973;52.084;5.412;2023-11-21T09:22:41;0.60;;;0.60;;
61911;SDS011;49973;52.084;5.412;2023-11-21T09:25:11;0.80;;;0.80;;
61911;SDS011;49973;52.084;5.412;2023-11-21T09:27:40;0.97;;;0.80;;
61911;SDS011;49973;52.084;5.412;2023-11-21T09:30:09;1.47;;;1.37;;
61911;SDS011;49973;52.084;5.412;2023-11-21T09:32:42;1.23;;;0.87;;
61911;SDS011;49973;52.084;5.412;2023-11-21T09:35:13;0.70;;;0.70;;
61911;SDS011;49973;52.084;5.412;2023-11-21T09:37:43;1.57;;;1.23;;
61911;SDS011;49973;52.084;5.412;2023-11-21T09:40:16;1.70;;;1.27;;
61911;SDS011;49973;52.084;5.412;2023-11-21T09:42:51;1.40;;;1.30;;
61911;SDS011;49973;52.084;5.412;2023-11-21T09:45:27;1.73;;;1.63;;
61911;SDS011;49973;52.084;5.412;2023-11-21T09:47:59;2.37;;;0.90;;
61911;SDS011;49973;52.084;5.412;2023-11-21T09:50:29;1.10;;;0.90;;
61911;SDS011;49973;52.084;5.412;2023-11-21T09:53:03;1.20;;;1.13;;
61911;SDS011;49973;52.084;5.412;2023-11-21T09:55:42;0.70;;;0.70;;
61911;SDS011;49973;52.084;5.412;2023-11-21T09:58:11;3.23;;;1.47;;
61911;SDS011;49973;52.084;5.412;2023-11-21T10:00:42;1.97;;;1.37;;
61911;SDS011;49973;52.084;5.412;2023-11-21T10:03:13;1.33;;;1.23;;
61911;SDS011;49973;52.084;5.412;2023-11-21T10:05:44;2.23;;;1.47;;
61911;SDS011;49973;52.084;5.412;2023-11-21T10:08:13;1.87;;;1.50;;
61911;SDS011;49973;52.084;5.412;2023-11-21T10:10:43;0.90;;;0.90;;
61911;SDS011;49973;52.084;5.412;2023-11-21T10:13:13;0.90;;;0.90;;
61911;SDS011;49973;52.084;5.412;2023-11-21T10:15:44;1.73;;;1.60;;
61911;SDS011;49973;52.084;5.412;2023-11-21T10:18:19;1.17;;;1.10;;
61911;SDS011;49973;52.084;5.412;2023-11-21T10:20:50;2.37;;;1.77;;
61911;SDS011;49973;52.084;5.412;2023-11-21T10:23:21;3.63;;;1.90;;
61911;SDS011;49973;52.084;5.412;2023-11-21T10:25:51;0.83;;;0.83;;
61911;SDS011;49973;52.084;5.412;2023-11-21T10:28:24;1.20;;;1.10;;
61911;SDS011;49973;52.084;5.412;2023-11-21T10:30:53;2.47;;;1.40;;
61911;SDS011;49973;52.084;5.412;2023-11-21T10:33:27;2.63;;;1.67;;
61911;SDS011;49973;52.084;5.412;2023-11-21T10:35:57;1.20;;;1.10;;
61911;SDS011;49973;52.084;5.412;2023-11-21T10:38:28;1.80;;;1.40;;
61911;SDS011;49973;52.084;5.412;2023-11-21T10:41:04;1.97;;;1.37;;
61911;SDS011;49973;52.084;5.412;2023-11-21T10:43:38;2.30;;;1.50;;
61911;SDS011;49973;52.084;5.412;2023-11-21T10:46:06;2.23;;;1.90;;
61911;SDS011;49973;52.084;5.412;2023-11-21T10:48:37;1.47;;;1.23;;
61911;SDS011;49973;52.084;5.412;2023-11-21T10:51:06;2.37;;;1.17;;
61911;SDS011;49973;52.084;5.412;2023-11-21T10:53:39;1.47;;;1.37;;
61911;SDS011;49973;52.084;5.412;2023-11-21T10:56:11;1.97;;;1.40;;
61911;SDS011;49973;52.084;5.412;2023-11-21T10:58:45;1.37;;;1.27;;
61911;SDS011;49973;52.084;5.412;2023-11-21T11:01:14;1.50;;;1.23;;
61911;SDS011;49973;52.084;5.412;2023-11-21T11:03:47;2.50;;;1.60;;
61911;SDS011;49973;52.084;5.412;2023-11-21T11:06:16;2.67;;;2.10;;
61911;SDS011;49973;52.084;5.412;2023-11-21T11:08:45;4.53;;;1.53;;
61911;SDS011;49973;52.084;5.412;2023-11-21T11:11:16;1.13;;;0.97;;
61911;SDS011;49973;52.084;5.412;2023-11-21T11:13:45;1.80;;;1.33;;
61911;SDS011;49973;52.084;5.412;2023-11-21T11:16:14;1.60;;;1.40;;
61911;SDS011;49973;52.084;5.412;2023-11-21T11:18:46;2.63;;;1.37;;
61911;SDS011;49973;52.084;5.412;2023-11-21T11:21:22;2.87;;;1.90;;
61911;SDS011;49973;52.084;5.412;2023-11-21T11:24:01;1.83;;;1.37;;
61911;SDS011;49973;52.084;5.412;2023-11-21T11:26:43;1.80;;;1.30;;
61911;SDS011;49973;52.084;5.412;2023-11-21T11:29:17;1.27;;;1.17;;
61911;SDS011;49973;52.084;5.412;2023-11-21T11:32:00;2.83;;;1.50;;
61911;SDS011;49973;52.084;5.412;2023-11-21T11:34:41;1.80;;;1.27;;
61911;SDS011;49973;52.084;5.412;2023-11-21T11:37:14;2.47;;;1.27;;
61911;SDS011;49973;52.084;5.412;2023-11-21T11:39:43;2.47;;;1.67;;
61911;SDS011;49973;52.084;5.412;2023-11-21T11:42:12;2.57;;;1.90;;
61911;SDS011;49973;52.084;5.412;2023-11-21T11:44:48;3.27;;;1.87;;
61911;SDS011;49973;52.084;5.412;2023-11-21T11:47:24;3.27;;;1.83;;
61911;SDS011;49973;52.084;5.412;2023-11-21T11:50:07;4.53;;;2.57;;
61911;SDS011;49973;52.084;5.412;2023-11-21T11:52:41;3.23;;;1.93;;
61911;SDS011;49973;52.084;5.412;2023-11-21T11:55:11;1.93;;;1.70;;
61911;SDS011;49973;52.084;5.412;2023-11-21T11:57:41;2.47;;;1.43;;
61911;SDS011;49973;52.084;5.412;2023-11-21T12:00:11;2.47;;;2.00;;
61911;SDS011;49973;52.084;5.412;2023-11-21T12:02:47;3.80;;;2.10;;
61911;SDS011;49973;52.084;5.412;2023-11-21T12:05:20;3.00;;;1.87;;
61911;SDS011;49973;52.084;5.412;2023-11-21T12:07:50;1.73;;;1.50;;
61911;SDS011;49973;52.084;5.412;2023-11-21T12:10:21;1.70;;;1.40;;
61911;SDS011;49973;52.084;5.412;2023-11-21T12:12:52;3.93;;;2.50;;
61911;SDS011;49973;52.084;5.412;2023-11-21T12:15:24;2.33;;;1.57;;
61911;SDS011;49973;52.084;5.412;2023-11-21T12:17:53;1.80;;;1.43;;
61911;SDS011;49973;52.084;5.412;2023-11-21T12:20:24;2.57;;;1.73;;
61911;SDS011;49973;52.084;5.412;2023-11-21T12:22:54;3.03;;;1.93;;
61911;SDS011;49973;52.084;5.412;2023-11-21T12:25:26;4.30;;;2.17;;
61911;SDS011;49973;52.084;5.412;2023-11-21T12:27:59;3.57;;;2.00;;
61911;SDS011;49973;52.084;5.412;2023-11-21T12:30:28;3.57;;;2.30;;
61911;SDS011;49973;52.084;5.412;2023-11-21T12:32:59;3.57;;;2.00;;
61911;SDS011;49973;52.084;5.412;2023-11-21T12:35:30;3.87;;;2.53;;
61911;SDS011;49973;52.084;5.412;2023-11-21T12:38:01;4.80;;;2.40;;
61911;SDS011;49973;52.084;5.412;2023-11-21T12:40:30;2.80;;;1.73;;
61911;SDS011;49973;52.084;5.412;2023-11-21T12:43:00;3.70;;;2.10;;
61911;SDS011;49973;52.084;5.412;2023-11-21T12:45:31;4.10;;;2.77;;
61911;SDS011;49973;52.084;5.412;2023-11-21T12:48:01;3.27;;;2.07;;
61911;SDS011;49973;52.084;5.412;2023-11-21T12:50:36;2.63;;;2.23;;
61911;SDS011;49973;52.084;5.412;2023-11-21T12:53:08;3.83;;;1.73;;
61911;SDS011;49973;52.084;5.412;2023-11-21T12:55:39;4.30;;;2.40;;
61911;SDS011;49973;52.084;5.412;2023-11-21T12:58:09;1.63;;;1.53;;
61911;SDS011;49973;52.084;5.412;2023-11-21T13:00:40;5.73;;;2.40;;
61911;SDS011;49973;52.084;5.412;2023-11-21T13:03:12;4.13;;;2.30;;
61911;SDS011;49973;52.084;5.412;2023-11-21T13:05:46;2.87;;;1.97;;
61911;SDS011;49973;52.084;5.412;2023-11-21T13:08:18;4.07;;;1.90;;
61911;SDS011;49973;52.084;5.412;2023-11-21T13:10:50;3.63;;;2.03;;
61911;SDS011;49973;52.084;5.412;2023-11-21T13:13:21;3.97;;;2.03;;
61911;SDS011;49973;52.084;5.412;2023-11-21T13:15:52;3.67;;;1.93;;
61911;SDS011;49973;52.084;5.412;2023-11-21T13:18:23;5.53;;;2.57;;
61911;SDS011;49973;52.084;5.412;2023-11-21T13:20:56;3.77;;;1.87;;
61911;SDS011;49973;52.084;5.412;2023-11-21T13:23:25;7.70;;;2.27;;
61911;SDS011;49973;52.084;5.412;2023-11-21T13:25:56;2.30;;;1.97;;
61911;SDS011;49973;52.084;5.412;2023-11-21T13:28:33;2.90;;;2.10;;
61911;SDS011;49973;52.084;5.412;2023-11-21T13:31:02;2.87;;;1.87;;
61911;SDS011;49973;52.084;5.412;2023-11-21T13:33:38;3.17;;;2.00;;
61911;SDS011;49973;52.084;5.412;2023-11-21T13:36:11;1.93;;;1.77;;
61911;SDS011;49973;52.084;5.412;2023-11-21T13:38:41;1.30;;;1.10;;
61911;SDS011;49973;52.084;5.412;2023-11-21T13:41:11;1.73;;;1.43;;
61911;SDS011;49973;52.084;5.412;2023-11-21T13:43:41;2.83;;;1.80;;
61911;SDS011;49973;52.084;5.412;2023-11-21T13:46:17;3.73;;;1.47;;
61911;SDS011;49973;52.084;5.412;2023-11-21T13:48:49;1.07;;;0.80;;
61911;SDS011;49973;52.084;5.412;2023-11-21T13:51:24;1.13;;;1.00;;
61911;SDS011;49973;52.084;5.412;2023-11-21T13:54:03;0.80;;;0.70;;
61911;SDS011;49973;52.084;5.412;2023-11-21T13:56:36;1.43;;;0.80;;
61911;SDS011;49973;52.084;5.412;2023-11-21T13:59:06;1.00;;;0.77;;
61911;SDS011;49973;52.084;5.412;2023-11-21T14:01:45;4.00;;;0.87;;
61911;SDS011;49973;52.084;5.412;2023-11-21T14:04:23;2.93;;;1.50;;
61911;SDS011;49973;52.084;5.412;2023-11-21T14:07:13;2.83;;;1.17;;
61911;SDS011;49973;52.084;5.412;2023-11-21T14:09:58;2.03;;;1.83;;
61911;SDS011;49973;52.084;5.412;2023-11-21T14:12:27;2.10;;;1.23;;
61911;SDS011;49973;52.084;5.412;2023-11-21T14:15:04;5.17;;;2.27;;
61911;SDS011;49973;52.084;5.412;2023-11-21T14:17:36;6.37;;;2.33;;
61911;SDS011;49973;52.084;5.412;2023-11-21T14:20:08;2.70;;;1.53;;
61911;SDS011;49973;52.084;5.412;2023-11-21T14:22:44;5.30;;;2.10;;
61911;SDS011;49973;52.084;5.412;2023-11-21T14:25:14;2.77;;;1.80;;
61911;SDS011;49973;52.084;5.412;2023-11-21T14:27:44;4.07;;;1.97;;
61911;SDS011;49973;52.084;5.412;2023-11-21T14:30:13;4.03;;;2.03;;
61911;SDS011;49973;52.084;5.412;2023-11-21T14:32:46;3.40;;;1.87;;
61911;SDS011;49973;52.084;5.412;2023-11-21T14:35:15;7.10;;;3.13;;
61911;SDS011;49973;52.084;5.412;2023-11-21T14:37:45;5.23;;;2.73;;
61911;SDS011;49973;52.084;5.412;2023-11-21T14:40:14;7.90;;;3.03;;
61911;SDS011;49973;52.084;5.412;2023-11-21T14:42:44;4.73;;;3.13;;
61911;SDS011;49973;52.084;5.412;2023-11-21T14:45:14;5.53;;;2.67;;
61911;SDS011;49973;52.084;5.412;2023-11-21T14:47:47;6.53;;;2.77;;
61911;SDS011;49973;52.084;5.412;2023-11-21T14:50:23;5.97;;;2.70;;
61911;SDS011;49973;52.084;5.412;2023-11-21T14:53:17;4.90;;;3.80;;
61911;SDS011;49973;52.084;5.412;2023-11-21T14:56:07;5.83;;;3.23;;
61911;SDS011;49973;52.084;5.412;2023-11-21T14:58:36;3.80;;;2.70;;
61911;SDS011;49973;52.084;5.412;2023-11-21T15:01:06;3.53;;;1.97;;
61911;SDS011;49973;52.084;5.412;2023-11-21T15:03:35;4.50;;;2.07;;
61911;SDS011;49973;52.084;5.412;2023-11-21T15:06:17;6.87;;;3.07;;
61911;SDS011;49973;52.084;5.412;2023-11-21T15:08:54;5.43;;;2.67;;